createdAt,value
2022-12-18T00:03:19.272Z,23.90
2022-12-18T00:08:21.237Z,18.73
2022-12-18T00:13:22.707Z,22.17
2022-12-18T00:18:24.117Z,19.83
2022-12-18T00:23:25.528Z,20.20
2022-12-18T00:28:26.993Z,19.85
2022-12-18T00:33:28.968Z,19.00
2022-12-18T00:38:30.394Z,17.25
2022-12-18T00:43:35.656Z,17.02
2022-12-18T00:48:37.306Z,14.57
2022-12-18T00:53:40.118Z,18.77
2022-12-18T00:58:41.932Z,19.60
2022-12-18T01:03:43.533Z,15.48
2022-12-18T01:08:45.662Z,17.60
2022-12-18T01:13:47.882Z,22.02
2022-12-18T01:18:53.739Z,16.58
2022-12-18T01:23:56.415Z,15.38
2022-12-18T01:28:59.062Z,14.57
2022-12-18T01:34:06.454Z,15.25
2022-12-18T01:39:15.114Z,15.85
2022-12-18T01:44:55.088Z,13.20
2022-12-18T01:49:59.386Z,14.20
2022-12-18T01:55:02.508Z,11.55
2022-12-18T02:00:30.898Z,15.35
2022-12-18T02:05:58.274Z,14.48
2022-12-18T02:11:26.907Z,12.95
2022-12-18T02:16:48.586Z,16.38
2022-12-18T02:22:08.434Z,13.10
2022-12-18T02:27:11.921Z,11.75
2022-12-18T02:32:18.717Z,14.70
2022-12-18T02:37:21.846Z,11.68
2022-12-18T02:42:25.282Z,7.85
2022-12-18T02:47:33.489Z,9.87
2022-12-18T02:52:55.507Z,10.48
2022-12-18T02:58:01.481Z,11.93
2022-12-18T03:03:20.450Z,10.52
2022-12-18T03:08:26.091Z,11.35
2022-12-18T03:13:37.145Z,13.02
2022-12-18T03:18:53.210Z,11.07
2022-12-18T03:23:56.479Z,11.73
2022-12-18T03:29:09.014Z,14.45
2022-12-18T03:34:20.778Z,10.85
2022-12-18T03:39:22.958Z,12.23
2022-12-18T03:44:40.798Z,8.75
2022-12-18T03:49:58.523Z,9.48
2022-12-18T03:55:04.169Z,12.48
2022-12-18T04:00:15.335Z,12.45
2022-12-18T04:05:30.822Z,9.18
2022-12-18T04:10:33.038Z,8.95
2022-12-18T04:15:39.528Z,10.45
2022-12-18T04:20:46.227Z,11.02
2022-12-18T04:25:48.278Z,9.35
2022-12-18T04:30:56.114Z,10.02
2022-12-18T04:35:57.817Z,9.10
2022-12-18T04:41:00.098Z,7.05
2022-12-18T04:46:07.198Z,8.07
2022-12-18T04:51:08.779Z,7.95
2022-12-18T04:56:13.957Z,7.03
2022-12-18T05:01:17.364Z,7.32
2022-12-18T05:06:19.093Z,8.75
2022-12-18T05:11:20.495Z,7.53
2022-12-18T05:16:21.921Z,6.70
2022-12-18T05:21:23.387Z,6.20
2022-12-18T05:26:24.824Z,6.40
2022-12-18T05:31:26.251Z,8.70
2022-12-18T05:36:27.756Z,7.05
2022-12-18T05:41:29.619Z,7.93
2022-12-18T05:46:31.086Z,8.15
2022-12-18T05:51:32.538Z,10.30
2022-12-18T05:56:33.960Z,6.80
2022-12-18T06:01:35.663Z,8.80
2022-12-18T06:06:37.649Z,7.15
2022-12-18T06:11:39.967Z,6.57
2022-12-18T06:16:41.390Z,9.20
2022-12-18T06:21:42.928Z,6.53
2022-12-18T06:26:44.358Z,8.40
2022-12-18T06:31:45.793Z,8.98
2022-12-18T06:36:47.314Z,12.15
2022-12-18T06:41:48.823Z,6.90
2022-12-18T06:46:50.339Z,10.00
2022-12-18T06:51:51.768Z,10.77
2022-12-18T06:56:53.150Z,9.05
2022-12-18T07:01:57.456Z,10.68
2022-12-18T07:06:58.930Z,12.70
2022-12-18T07:12:00.382Z,12.75
2022-12-18T07:17:01.856Z,11.30
2022-12-18T07:22:03.307Z,10.80
2022-12-18T07:27:06.044Z,11.23
2022-12-18T07:32:09.592Z,8.18
2022-12-18T07:37:11.311Z,8.65
2022-12-18T07:42:31.463Z,10.00
2022-12-18T07:47:36.034Z,13.32
2022-12-18T07:52:37.470Z,13.82
2022-12-18T07:57:50.518Z,11.68
2022-12-18T08:02:52.886Z,13.48
2022-12-18T08:07:54.639Z,14.30
2022-12-18T08:13:00.022Z,15.80
2022-12-18T08:18:04.491Z,14.90
2022-12-18T08:23:05.918Z,14.88
2022-12-18T08:28:07.319Z,18.27
2022-12-18T08:33:08.777Z,23.33
2022-12-18T08:38:10.226Z,19.45
2022-12-18T08:43:30.758Z,22.00
2022-12-18T08:48:32.222Z,23.33
2022-12-18T08:53:36.552Z,20.95
2022-12-18T08:58:38.190Z,18.73
2022-12-18T09:03:41.287Z,18.00
2022-12-18T09:08:44.570Z,16.40
2022-12-18T09:13:46.143Z,19.50
2022-12-18T09:18:48.307Z,20.15
2022-12-18T09:23:54.333Z,18.77
2022-12-18T09:28:56.786Z,19.38
2022-12-18T09:33:58.183Z,19.33
2022-12-18T09:39:02.611Z,20.80
2022-12-18T09:44:11.946Z,18.85
2022-12-18T09:49:17.134Z,20.27
2022-12-18T09:54:39.250Z,24.27
2022-12-18T09:59:47.279Z,19.40
2022-12-18T10:05:18.791Z,20.30
2022-12-18T10:10:38.760Z,18.10
2022-12-18T10:15:55.571Z,20.70
2022-12-18T10:21:04.628Z,15.38
2022-12-18T10:26:11.587Z,15.82
2022-12-18T10:31:20.643Z,22.15
2022-12-18T10:36:23.760Z,19.20
2022-12-18T10:41:27.843Z,21.70
2022-12-18T10:46:31.030Z,21.95
2022-12-18T10:51:38.467Z,23.23
2022-12-18T10:56:40.386Z,23.73
2022-12-18T11:01:58.528Z,23.90
2022-12-18T11:07:01.374Z,22.17
2022-12-18T11:12:07.074Z,25.10
2022-12-18T11:17:27.321Z,27.15
2022-12-18T11:22:34.112Z,27.13
2022-12-18T11:27:35.545Z,27.27
2022-12-18T11:32:39.171Z,26.50
2022-12-18T11:37:44.515Z,26.75
2022-12-18T11:42:52.811Z,30.58
2022-12-18T11:48:15.847Z,29.30
2022-12-18T11:53:17.930Z,29.83
2022-12-18T11:58:50.420Z,27.55
2022-12-18T12:04:29.682Z,27.60
2022-12-18T12:09:45.335Z,30.77
2022-12-18T12:15:22.516Z,40.25
2022-12-18T12:21:08.559Z,33.13
2022-12-18T12:26:17.343Z,33.95
2022-12-18T12:31:26.609Z,35.30
2022-12-18T12:36:40.159Z,36.00
2022-12-18T12:42:03.505Z,37.15
2022-12-18T12:47:17.299Z,34.38
2022-12-18T12:52:32.123Z,33.92
2022-12-18T12:57:44.358Z,40.30
2022-12-18T13:03:18.583Z,37.03
2022-12-18T13:08:26.526Z,32.45
2022-12-18T13:13:50.549Z,34.00
2022-12-18T13:18:55.302Z,36.20
2022-12-18T13:23:58.495Z,32.80
2022-12-18T13:29:00.596Z,30.67
2022-12-18T13:34:28.070Z,31.20
2022-12-18T13:39:35.769Z,31.52
2022-12-18T13:44:42.300Z,34.05
2022-12-18T13:49:44.952Z,33.65
2022-12-18T13:54:53.475Z,30.63
2022-12-18T13:59:58.441Z,34.38
2022-12-18T14:05:05.593Z,31.60
2022-12-18T14:20:53.391Z,32.00
2022-12-18T14:25:57.762Z,37.50
2022-12-18T14:31:02.721Z,31.48
2022-12-18T14:36:06.328Z,35.03
2022-12-18T14:41:14.514Z,32.78
2022-12-18T14:46:31.165Z,29.77
2022-12-18T14:51:34.996Z,32.33
2022-12-18T14:56:44.360Z,29.95
2022-12-18T15:02:00.863Z,32.47
2022-12-18T15:07:12.738Z,27.38
2022-12-18T15:12:43.522Z,28.58
2022-12-18T15:17:45.086Z,25.40
2022-12-18T15:22:48.503Z,24.48
2022-12-18T15:27:50.295Z,27.70
2022-12-18T15:32:53.191Z,24.33
2022-12-18T15:37:54.683Z,27.05
2022-12-18T15:43:14.955Z,26.42
2022-12-18T15:48:23.141Z,26.15
2022-12-18T15:53:27.244Z,30.65
2022-12-18T15:58:28.798Z,26.92
2022-12-18T16:03:30.415Z,28.83
2022-12-18T16:08:32.637Z,26.58
2022-12-18T16:13:34.083Z,33.28
2022-12-18T16:18:36.163Z,29.15
2022-12-18T16:23:37.718Z,32.70
2022-12-18T16:28:43.828Z,28.73
2022-12-18T16:33:49.697Z,26.17
2022-12-18T16:38:51.179Z,26.30
2022-12-18T16:43:55.030Z,30.08
2022-12-18T16:48:59.340Z,28.55
2022-12-18T16:54:02.989Z,29.55
2022-12-18T16:59:09.890Z,32.42
2022-12-18T17:04:11.520Z,26.60
2022-12-18T17:09:15.831Z,33.17
2022-12-18T17:14:20.307Z,29.52
2022-12-18T17:19:24.823Z,29.27
2022-12-18T17:24:30.078Z,30.80
2022-12-18T17:29:34.782Z,31.40
2022-12-18T17:34:36.991Z,25.30
2022-12-18T17:39:39.139Z,29.52
2022-12-18T17:44:40.627Z,28.10
2022-12-18T17:49:42.397Z,29.55
2022-12-18T17:54:44.070Z,34.97
2022-12-18T17:59:45.486Z,29.75
2022-12-18T18:04:46.903Z,32.92
2022-12-18T18:09:48.321Z,29.42
2022-12-18T18:14:49.730Z,39.50
2022-12-18T18:19:51.550Z,31.95
2022-12-18T18:24:53.091Z,34.90
2022-12-18T18:29:54.670Z,28.25
2022-12-18T18:34:56.070Z,28.45
2022-12-18T18:39:57.534Z,31.20
2022-12-18T18:45:02.084Z,29.77
2022-12-18T18:50:03.840Z,32.97
2022-12-18T18:55:16.262Z,30.00
2022-12-18T19:00:25.611Z,29.67
2022-12-18T19:05:31.086Z,32.10
2022-12-18T19:10:32.571Z,27.00
2022-12-18T19:15:34.474Z,28.27
2022-12-18T19:20:36.407Z,30.73
2022-12-18T19:25:42.137Z,32.10
2022-12-18T19:30:45.017Z,28.92
2022-12-18T19:35:46.513Z,28.40
2022-12-18T19:40:48.534Z,27.80
2022-12-18T19:45:54.977Z,27.17
2022-12-18T19:50:56.507Z,26.63
2022-12-18T19:55:58.542Z,30.90
2022-12-18T20:01:00.075Z,26.23
2022-12-18T20:06:46.423Z,26.13
2022-12-18T20:11:48.132Z,22.42
2022-12-18T20:16:49.723Z,22.80
2022-12-18T20:21:51.727Z,23.02
2022-12-18T20:26:53.999Z,27.50
2022-12-18T20:31:55.462Z,25.33
2022-12-18T20:36:56.981Z,22.75
2022-12-18T20:41:58.792Z,26.13
2022-12-18T20:47:07.730Z,23.60
2022-12-18T20:52:10.191Z,23.45
2022-12-18T20:57:11.709Z,27.08
2022-12-18T21:02:14.059Z,23.15
2022-12-18T21:07:16.028Z,25.23
2022-12-18T21:12:45.278Z,21.45
2022-12-18T21:18:02.467Z,22.38
2022-12-18T21:23:16.049Z,21.25
2022-12-18T21:28:18.432Z,22.83
2022-12-18T21:33:20.184Z,18.08
2022-12-18T21:38:21.663Z,18.63
2022-12-18T21:43:41.946Z,20.98
2022-12-18T21:48:43.840Z,18.50
2022-12-18T21:53:45.321Z,21.50
2022-12-18T22:03:58.846Z,20.90
2022-12-18T22:09:00.447Z,21.27
2022-12-18T22:14:01.945Z,21.35
2022-12-18T22:19:04.823Z,22.55
2022-12-18T22:24:29.215Z,22.55
2022-12-18T22:29:49.082Z,20.90
2022-12-18T22:34:50.497Z,26.77
2022-12-18T22:39:52.012Z,22.50
2022-12-18T22:44:53.953Z,21.98
2022-12-18T22:49:55.463Z,22.38
2022-12-18T22:54:56.859Z,20.92
2022-12-18T22:59:58.265Z,24.33
2022-12-18T23:05:00.422Z,24.58
2022-12-18T23:10:02.411Z,25.73
2022-12-18T23:15:05.140Z,23.77
2022-12-18T23:20:07.388Z,29.23
2022-12-18T23:25:09.862Z,24.65
2022-12-18T23:30:12.143Z,24.65
2022-12-18T23:35:15.567Z,25.38
2022-12-18T23:40:17.463Z,26.13
2022-12-18T23:45:18.895Z,26.15
2022-12-18T23:50:24.521Z,23.42
2022-12-18T23:55:31.239Z,24.67
